createdAt,value
2016-12-23T19:58:40.771Z,59.71
2016-12-23T19:59:17.041Z,59.88
2016-12-23T20:00:16.100Z,59.88
2016-12-23T20:01:14.197Z,59.84
2016-12-23T20:02:13.845Z,59.92
2016-12-23T20:03:14.440Z,59.94
2016-12-23T20:04:13.843Z,59.99
2016-12-23T20:05:14.321Z,59.93
2016-12-23T20:06:14.103Z,59.91
2016-12-23T20:07:14.593Z,58.92
2016-12-23T20:08:13.921Z,57.97
2016-12-23T20:09:12.112Z,58.57
2016-12-23T20:10:14.232Z,58.91
2016-12-23T20:11:14.222Z,59.48
2016-12-23T20:12:13.976Z,59.84
2016-12-23T20:13:13.696Z,59.85
2016-12-23T20:14:14.658Z,59.88
2016-12-23T20:15:14.974Z,59.98
2016-12-23T20:16:13.813Z,59.98
2016-12-23T20:17:14.730Z,59.97
2016-12-23T20:18:15.373Z,60.00
2016-12-23T20:19:15.061Z,60.10
2016-12-23T20:20:20.759Z,60.12
2016-12-23T20:21:14.284Z,60.11
2016-12-23T20:22:11.127Z,60.15
2016-12-23T20:23:14.212Z,60.20
2016-12-23T20:24:14.180Z,60.16
2016-12-23T20:25:14.245Z,60.21
2016-12-23T20:26:14.118Z,60.32
2016-12-23T20:27:14.276Z,60.11
2016-12-23T20:28:14.499Z,60.21
2016-12-23T20:29:19.242Z,60.30
2016-12-23T20:30:14.081Z,60.35
2016-12-23T20:31:14.348Z,60.34
2016-12-23T20:32:14.401Z,60.10
2016-12-23T20:33:14.644Z,60.37
2016-12-23T20:34:14.950Z,60.47
2016-12-23T20:35:12.817Z,60.46
2016-12-23T20:36:14.826Z,60.58
2016-12-23T20:37:14.986Z,60.41
2016-12-23T20:38:13.617Z,59.39
2016-12-23T20:39:14.751Z,59.34
2016-12-23T20:40:13.786Z,59.26
2016-12-23T20:41:13.827Z,58.69
2016-12-23T20:42:10.766Z,58.77
2016-12-23T20:43:15.683Z,59.06
2016-12-23T20:44:14.022Z,58.88
2016-12-23T20:45:13.670Z,59.91
2016-12-23T20:46:11.850Z,59.94
2016-12-23T20:47:14.521Z,60.08
2016-12-23T20:48:14.465Z,59.96
2016-12-23T20:49:14.680Z,59.67
2016-12-23T20:50:13.393Z,60.27
2016-12-23T20:51:14.377Z,60.24
2016-12-23T20:52:13.919Z,60.39
2016-12-23T20:53:13.909Z,60.31
2016-12-23T20:54:14.203Z,60.31
2016-12-23T20:55:14.679Z,60.39
2016-12-23T20:56:31.037Z,60.32
2016-12-23T20:57:13.457Z,60.46
2016-12-23T20:58:13.807Z,60.32
2016-12-23T20:59:13.188Z,60.47
2016-12-23T21:00:14.449Z,60.50
2016-12-23T21:01:10.829Z,60.45
2016-12-23T21:02:14.728Z,60.37
2016-12-23T21:03:13.192Z,60.41
2016-12-23T21:04:12.764Z,60.45
2016-12-23T21:05:14.175Z,60.39
2016-12-23T21:06:13.275Z,60.99
2016-12-23T21:07:13.082Z,60.18
2016-12-23T21:08:13.304Z,59.69
2016-12-23T21:09:14.185Z,59.64
2016-12-23T21:10:12.722Z,59.58
2016-12-23T21:11:12.866Z,59.83
2016-12-23T21:12:15.296Z,60.61
2016-12-23T21:13:14.076Z,60.85
2016-12-23T21:14:13.397Z,61.02
2016-12-23T21:15:13.193Z,61.17
2016-12-23T21:16:15.371Z,61.29
2016-12-23T21:17:15.194Z,61.27
2016-12-23T21:18:14.103Z,61.38
2016-12-23T21:19:13.419Z,61.41
2016-12-23T21:20:15.407Z,61.37
2016-12-23T21:21:12.724Z,61.49
2016-12-23T21:22:12.913Z,61.48
2016-12-23T21:23:15.937Z,61.52
2016-12-23T21:24:12.948Z,61.48
2016-12-23T21:25:12.828Z,61.45
2016-12-23T21:26:13.395Z,61.61
2016-12-23T21:27:13.217Z,61.45
2016-12-23T21:28:13.295Z,60.61
2016-12-23T21:29:13.290Z,60.39
2016-12-23T21:30:14.766Z,60.37
2016-12-23T21:31:15.639Z,60.26
2016-12-23T21:32:13.577Z,60.31
2016-12-23T21:33:13.906Z,60.50
2016-12-23T21:34:13.570Z,61.24
2016-12-23T21:35:12.956Z,61.42
2016-12-23T21:36:13.553Z,61.57
2016-12-23T21:37:13.709Z,61.67
2016-12-23T21:38:10.496Z,61.66
2016-12-23T21:39:14.277Z,61.68
2016-12-23T21:40:13.867Z,61.73
2016-12-23T21:41:12.997Z,61.71
2016-12-23T21:42:13.030Z,61.78
2016-12-23T21:43:16.464Z,61.75
2016-12-23T21:44:13.247Z,61.76
2016-12-23T21:45:13.578Z,61.81
2016-12-23T21:46:15.209Z,61.79
2016-12-23T21:47:12.871Z,61.81
2016-12-23T21:48:13.639Z,61.87
2016-12-23T21:49:12.923Z,61.86
2016-12-23T21:50:12.445Z,61.81
2016-12-23T21:51:15.326Z,61.84
2016-12-23T21:52:13.418Z,61.78
2016-12-23T21:53:11.000Z,61.82
2016-12-23T21:54:13.858Z,61.77
2016-12-23T21:55:13.084Z,61.80
2016-12-23T21:56:15.241Z,61.83
2016-12-23T21:57:11.395Z,61.87
2016-12-23T21:58:13.335Z,60.87
2016-12-23T21:59:13.257Z,60.63
2016-12-23T22:00:13.521Z,60.44
2016-12-23T22:01:12.800Z,60.43
2016-12-23T22:02:13.547Z,60.41
2016-12-23T22:03:13.246Z,60.34
2016-12-23T22:04:12.962Z,60.55
2016-12-23T22:05:12.976Z,61.31
2016-12-23T22:06:13.942Z,61.49
2016-12-23T22:07:12.404Z,61.60
2016-12-23T22:08:13.343Z,61.67
2016-12-23T22:09:13.723Z,61.63
2016-12-23T22:10:13.425Z,61.63
2016-12-23T22:11:14.172Z,61.64
2016-12-23T22:12:14.552Z,61.62
2016-12-23T22:13:13.266Z,61.68
2016-12-23T22:14:13.189Z,61.69
2016-12-23T22:15:13.439Z,61.66
2016-12-23T22:16:13.404Z,61.65
2016-12-23T22:17:13.048Z,61.64
2016-12-23T22:18:14.867Z,61.58
2016-12-23T22:19:12.825Z,61.62
2016-12-23T22:20:13.448Z,61.64
2016-12-23T22:21:13.788Z,61.57
2016-12-23T22:22:13.802Z,61.54
2016-12-23T22:23:13.815Z,61.52
2016-12-23T22:24:13.396Z,61.50
2016-12-23T22:25:12.984Z,61.58
2016-12-23T22:26:13.368Z,61.55
2016-12-23T22:27:12.756Z,61.56
2016-12-23T22:28:13.457Z,61.50
2016-12-23T22:29:17.938Z,61.59
2016-12-23T22:30:12.856Z,61.53
2016-12-23T22:31:13.606Z,61.50
2016-12-23T22:32:13.593Z,61.53
2016-12-23T22:33:13.802Z,61.53
2016-12-23T22:34:13.744Z,61.50
2016-12-23T22:35:14.216Z,61.51
2016-12-23T22:36:13.224Z,61.50
2016-12-23T22:37:12.948Z,61.49
2016-12-23T22:38:14.194Z,61.47
2016-12-23T22:39:15.028Z,61.50
2016-12-23T22:40:13.349Z,61.53
2016-12-23T22:41:14.107Z,61.50
2016-12-23T22:42:12.967Z,61.55
2016-12-23T22:43:13.397Z,61.54
2016-12-23T22:44:13.522Z,61.49
2016-12-23T22:45:11.771Z,61.53
2016-12-23T22:46:13.743Z,61.58
2016-12-23T22:47:15.696Z,61.53
2016-12-23T22:48:14.151Z,61.55
2016-12-23T22:49:13.917Z,61.54
2016-12-23T22:50:15.675Z,61.54
2016-12-23T22:51:15.998Z,61.50
2016-12-23T22:52:13.608Z,61.49
2016-12-23T22:53:10.995Z,61.48
2016-12-23T22:54:12.714Z,61.51
2016-12-23T22:55:14.205Z,61.51
2016-12-23T22:56:13.418Z,61.51
2016-12-23T22:57:12.771Z,61.52
2016-12-23T22:58:14.640Z,61.50
2016-12-23T22:59:16.077Z,61.57
2016-12-23T23:00:12.951Z,61.53
2016-12-23T23:01:12.862Z,61.50
2016-12-23T23:02:13.829Z,61.46
2016-12-23T23:03:13.249Z,61.48
2016-12-23T23:04:13.766Z,61.46
2016-12-23T23:05:13.290Z,61.45
2016-12-23T23:06:13.308Z,61.53
2016-12-23T23:07:16.529Z,61.50
2016-12-23T23:08:13.753Z,61.49
2016-12-23T23:09:13.492Z,61.48
2016-12-23T23:10:13.327Z,61.48
2016-12-23T23:11:11.657Z,61.35
2016-12-23T23:12:15.326Z,60.51
2016-12-23T23:13:22.353Z,60.31
2016-12-23T23:14:15.269Z,60.21
2016-12-23T23:15:13.011Z,60.16
2016-12-23T23:16:12.372Z,60.13
2016-12-23T23:17:13.397Z,60.12
2016-12-23T23:18:13.307Z,60.11
2016-12-23T23:19:13.826Z,60.12
2016-12-23T23:20:14.074Z,60.06
2016-12-23T23:21:13.140Z,60.12
2016-12-23T23:22:12.979Z,60.08
2016-12-23T23:23:12.541Z,60.09
2016-12-23T23:24:13.564Z,60.08
2016-12-23T23:25:13.158Z,60.30
2016-12-23T23:26:12.414Z,61.04
2016-12-23T23:27:13.197Z,61.22
2016-12-23T23:28:12.886Z,61.33
2016-12-23T23:29:14.273Z,61.39
2016-12-23T23:30:18.684Z,61.42
2016-12-23T23:31:14.676Z,61.41
2016-12-23T23:32:10.214Z,61.46
2016-12-23T23:33:15.242Z,61.49
2016-12-23T23:34:13.126Z,61.45
2016-12-23T23:35:13.140Z,61.47
2016-12-23T23:36:13.194Z,61.47
2016-12-23T23:37:10.458Z,61.49
2016-12-23T23:38:12.495Z,61.45
2016-12-23T23:39:13.808Z,60.53
2016-12-23T23:40:13.452Z,60.27
2016-12-23T23:41:13.484Z,60.22
2016-12-23T23:42:12.719Z,60.15
2016-12-23T23:43:26.653Z,60.19
2016-12-23T23:44:15.056Z,61.08
2016-12-23T23:45:13.009Z,61.30
2016-12-23T23:46:13.022Z,61.43
2016-12-23T23:47:13.169Z,61.41
2016-12-23T23:48:13.743Z,61.50
2016-12-23T23:49:13.603Z,61.48
2016-12-23T23:50:13.267Z,61.45
2016-12-23T23:51:14.445Z,61.51
2016-12-23T23:52:12.839Z,61.49
2016-12-23T23:53:14.689Z,61.46
2016-12-23T23:54:15.942Z,61.49
2016-12-23T23:55:12.936Z,61.52
2016-12-23T23:56:12.599Z,61.48
2016-12-23T23:57:13.442Z,61.51
2016-12-23T23:58:13.034Z,61.57
2016-12-23T23:59:13.383Z,61.55
